Time;durP1;ratioP1;P1;durP2;ratioP2;P2;SDS_P1;SDS_P2;PMS_P1;PMS_P2;Temp;Humidity;BMP_temperature;BMP_pressure;BME280_temperature;BME280_humidity;BME280_pressure;Samples;Min_cycle;Max_cycle;Signal;HPM_P1;HPM_P2
2022/08/21 00:01:48;;;;;;;23.90;16.90;;;;;;;18.74;76.70;96715.94;1706811;84;25744;-78
2022/08/21 00:04:15;;;;;;;24.43;15.98;;;;;;;18.75;76.73;96712.11;1706594;83;26799;-78
2022/08/21 00:06:42;;;;;;;28.25;16.65;;;;;;;18.76;76.74;96703.36;1706873;84;25700;-78
2022/08/21 00:09:10;;;;;;;31.23;17.65;;;;;;;18.77;76.81;96710.47;1706836;84;27354;-78
2022/08/21 00:11:39;;;;;;;27.25;17.17;;;;;;;18.73;76.92;96706.10;1707007;84;25748;-78
2022/08/21 00:14:08;;;;;;;31.50;18.60;;;;;;;18.67;76.99;96707.23;1706882;83;25702;-78
2022/08/21 00:16:35;;;;;;;30.60;18.00;;;;;;;18.66;77.09;96702.86;1707061;84;26330;-78
2022/08/21 00:19:03;;;;;;;28.60;17.37;;;;;;;18.67;77.12;96694.94;1706780;83;25880;-78
2022/08/21 00:21:29;;;;;;;30.23;18.98;;;;;;;18.67;77.11;96686.73;1706986;83;27406;-78
2022/08/21 00:23:56;;;;;;;31.93;19.40;;;;;;;18.69;77.13;96687.28;1706730;83;25732;-78
2022/08/21 00:26:23;;;;;;;26.52;18.12;;;;;;;18.70;77.12;96687.55;1706719;84;25234;-78
2022/08/21 00:28:49;;;;;;;33.53;18.20;;;;;;;18.69;77.22;96684.55;1706950;84;25726;-78
2022/08/21 00:31:17;;;;;;;25.45;17.75;;;;;;;18.67;77.27;96683.45;1706915;83;25716;-78
2022/08/21 00:33:44;;;;;;;27.58;17.45;;;;;;;18.63;77.26;96692.48;1706952;83;28189;-78
2022/08/21 00:36:13;;;;;;;32.10;18.55;;;;;;;18.62;77.32;96690.30;1706762;84;25655;-78
2022/08/21 00:38:40;;;;;;;28.52;18.05;;;;;;;18.62;77.37;96689.48;1707102;84;25924;-78
2022/08/21 00:41:09;;;;;;;27.60;17.27;;;;;;;18.64;77.42;96688.11;1706900;84;26435;-78
2022/08/21 00:43:39;;;;;;;26.42;17.98;;;;;;;18.65;77.46;96686.19;1706889;83;25735;-78
2022/08/21 00:46:07;;;;;;;30.80;17.37;;;;;;;18.64;77.51;96688.66;1706977;84;28305;-78
2022/08/21 00:48:34;;;;;;;25.95;17.15;;;;;;;18.62;77.45;96675.27;1706527;84;25756;-78
2022/08/21 00:51:28;;;;;;;22.90;16.35;;;;;;;18.63;77.45;96669.25;1706680;83;25732;-78
2022/08/21 00:53:59;;;;;;;25.32;15.85;;;;;;;18.65;77.40;96673.89;1706106;84;25749;-78
2022/08/21 00:56:26;;;;;;;27.73;17.30;;;;;;;18.65;77.46;96673.89;1665584;85;25357;-78
2022/08/21 00:58:54;;;;;;;25.25;17.92;;;;;;;18.66;77.42;96672.80;1708809;83;27522;-78
2022/08/21 01:01:21;;;;;;;24.37;16.50;;;;;;;18.65;77.41;96673.89;1673933;84;25711;-78
2022/08/21 01:03:48;;;;;;;27.42;17.57;;;;;;;18.65;77.43;96666.52;1710770;81;25646;-78
2022/08/21 01:06:15;;;;;;;26.30;17.48;;;;;;;18.66;77.42;96663.23;1712896;83;25783;-78
2022/08/21 01:08:42;;;;;;;28.32;16.97;;;;;;;18.66;77.40;96654.48;1712459;82;25691;-78
2022/08/21 01:11:09;;;;;;;24.63;16.75;;;;;;;18.67;77.41;96651.20;1712824;83;26848;-78
2022/08/21 01:13:39;;;;;;;25.92;16.60;;;;;;;18.66;77.41;96650.38;1712716;83;25840;-78
2022/08/21 01:16:09;;;;;;;26.48;17.15;;;;;;;18.63;77.41;96641.92;1712686;83;25762;-78
2022/08/21 01:18:35;;;;;;;26.50;16.97;;;;;;;18.59;77.49;96639.50;1712858;82;25740;-78
2022/08/21 01:21:13;;;;;;;28.20;16.80;;;;;;;18.50;77.62;96635.11;1712741;83;25644;-78
2022/08/21 01:23:44;;;;;;;22.95;16.32;;;;;;;18.45;77.72;96638.44;1712929;82;27385;-78
2022/08/21 01:26:13;;;;;;;22.17;16.15;;;;;;;18.42;77.83;96640.34;1712576;83;25911;-78
2022/08/21 01:28:49;;;;;;;28.47;15.78;;;;;;;18.42;77.92;96638.98;1712740;83;25745;-78
2022/08/21 01:31:17;;;;;;;23.50;15.88;;;;;;;18.43;77.94;96628.33;1656942;85;25787;-78
2022/08/21 01:33:44;;;;;;;29.50;15.83;;;;;;;18.44;77.94;96619.85;1665476;85;25891;-78
2022/08/21 01:36:11;;;;;;;25.00;17.10;;;;;;;18.44;77.90;96623.13;1665636;85;28045;-78
2022/08/21 01:38:38;;;;;;;21.93;15.72;;;;;;;18.45;77.84;96628.32;1665171;85;25878;-78
2022/08/21 01:41:04;;;;;;;25.45;16.05;;;;;;;18.46;77.82;96627.77;1665445;85;25742;-78
2022/08/21 01:43:31;;;;;;;19.27;15.70;;;;;;;18.47;77.81;96626.67;1665367;85;25797;-78
2022/08/21 01:45:58;;;;;;;22.10;15.13;;;;;;;18.44;77.85;96625.86;1665234;85;25917;-78
2022/08/21 01:48:24;;;;;;;19.57;14.28;;;;;;;18.38;77.84;96621.50;1665209;85;27515;-78
2022/08/21 01:50:51;;;;;;;23.83;15.55;;;;;;;18.36;77.87;96619.86;1665444;85;25493;-78
2022/08/21 01:53:18;;;;;;;22.82;15.32;;;;;;;18.38;77.87;96617.41;1665471;85;25976;-78
2022/08/21 01:55:44;;;;;;;24.87;15.60;;;;;;;18.35;77.82;96619.59;1665621;85;25865;-79
2022/08/21 01:58:11;;;;;;;25.27;15.20;;;;;;;18.30;77.81;96620.18;1665304;85;25768;-78
2022/08/21 02:00:38;;;;;;;26.68;15.13;;;;;;;18.29;77.88;96616.63;1665168;85;27482;-78
2022/08/21 02:03:05;;;;;;;23.35;15.00;;;;;;;18.28;77.88;96623.19;1665406;85;26448;-78
2022/08/21 02:05:32;;;;;;;21.62;14.47;;;;;;;18.27;77.86;96622.91;1665182;85;25735;-78
2022/08/21 02:07:59;;;;;;;19.40;13.90;;;;;;;18.28;77.82;96610.89;1665285;85;25748;-78
2022/08/21 02:10:30;;;;;;;17.32;14.25;;;;;;;18.27;77.73;96602.98;1665451;85;25730;-78
2022/08/21 02:12:59;;;;;;;22.00;14.50;;;;;;;18.26;77.66;96600.79;1665706;85;28183;-78
2022/08/21 02:15:28;;;;;;;17.55;13.80;;;;;;;18.24;77.62;96600.25;1665299;85;25731;-78
2022/08/21 02:17:59;;;;;;;19.02;14.20;;;;;;;18.21;77.60;96600.83;1665507;85;26055;-78
2022/08/21 02:20:37;;;;;;;19.92;14.03;;;;;;;18.21;77.68;96601.37;1665606;85;26341;-78
2022/08/21 02:23:04;;;;;;;18.77;13.72;;;;;;;18.19;77.69;96592.09;1635113;86;25763;-78
2022/08/21 02:25:31;;;;;;;17.48;12.37;;;;;;;18.17;77.63;96595.64;1635041;86;28034;-78
2022/08/21 02:28:01;;;;;;;18.05;12.37;;;;;;;18.13;77.60;96598.66;1645637;86;25836;-78
2022/08/21 02:30:33;;;;;;;17.35;13.62;;;;;;;18.11;77.57;96589.95;1660116;86;25736;-78
2022/08/21 02:33:00;;;;;;;18.55;12.58;;;;;;;18.09;77.56;96588.04;1660041;86;26338;-78
2022/08/21 02:35:28;;;;;;;17.48;12.25;;;;;;;18.07;77.49;96586.67;1659684;85;25327;-78
2022/08/21 02:38:02;;;;;;;17.75;11.95;;;;;;;18.03;77.46;96583.67;1659922;85;28217;-78
2022/08/21 02:40:33;;;;;;;19.40;12.53;;;;;;;18.02;77.42;96588.05;1581018;90;25888;-78
2022/08/21 02:43:02;;;;;;;17.10;12.58;;;;;;;18.00;77.41;96585.59;1581349;89;26831;-78
2022/08/21 02:45:29;;;;;;;18.48;12.35;;;;;;;17.98;77.45;96589.17;1581189;89;26477;-78
2022/08/21 02:48:00;;;;;;;15.72;12.18;;;;;;;17.98;77.41;96583.71;1580932;90;25803;-78
2022/08/21 02:50:31;;;;;;;16.60;11.75;;;;;;;17.96;77.35;96588.63;1539071;93;27460;-78
2022/08/21 02:52:58;;;;;;;16.40;11.63;;;;;;;17.95;77.29;96582.89;1525356;93;25835;-77
2022/08/21 02:55:29;;;;;;;16.10;11.43;;;;;;;17.94;77.27;96582.62;1525780;94;25872;-78
2022/08/21 02:57:58;;;;;;;17.98;13.10;;;;;;;17.91;77.29;96583.98;1525619;94;25983;-78
2022/08/21 03:00:28;;;;;;;22.93;12.93;;;;;;;17.90;77.28;96584.27;1525736;93;25929;-78
2022/08/21 03:02:55;;;;;;;15.15;11.85;;;;;;;17.88;77.34;96587.81;1518370;94;27529;-78
2022/08/21 03:05:25;;;;;;;20.08;12.55;;;;;;;17.84;77.38;96585.39;1515430;94;25752;-78
2022/08/21 03:07:52;;;;;;;15.90;11.90;;;;;;;17.82;77.38;96584.84;1544753;92;26220;-78
2022/08/21 03:10:21;;;;;;;18.32;10.95;;;;;;;17.81;77.33;96581.30;1544660;92;25877;-78
2022/08/21 03:12:48;;;;;;;16.25;11.30;;;;;;;17.80;77.25;96578.83;1544699;92;26028;-78
2022/08/21 03:15:19;;;;;;;13.90;11.08;;;;;;;17.78;77.16;96585.11;1544475;92;27495;-78
2022/08/21 03:17:46;;;;;;;18.77;11.83;;;;;;;17.67;77.04;96588.96;1544641;92;25780;-78
2022/08/21 03:20:17;;;;;;;15.40;11.55;;;;;;;17.54;77.29;96588.95;1565364;91;25839;-78
2022/08/21 03:22:44;;;;;;;21.30;12.85;;;;;;;17.53;77.57;96592.22;1576012;89;26930;-78
2022/08/21 03:25:11;;;;;;;12.03;10.40;;;;;;;17.55;77.65;96588.68;1576007;89;25807;-77
2022/08/21 03:27:38;;;;;;;14.35;10.40;;;;;;;17.56;77.62;96593.59;1575899;91;27434;-78
2022/08/21 03:30:07;;;;;;;13.90;10.70;;;;;;;17.54;77.57;96589.77;1576007;89;25859;-78
2022/08/21 03:32:35;;;;;;;15.25;10.50;;;;;;;17.55;77.54;96592.77;1576055;89;25879;-78
2022/08/21 03:35:02;;;;;;;17.42;10.80;;;;;;;17.55;77.57;96592.77;1576192;90;25878;-78
2022/08/21 03:37:29;;;;;;;16.27;11.38;;;;;;;17.57;77.58;96597.41;1575975;91;25808;-78
2022/08/21 03:39:55;;;;;;;20.30;11.97;;;;;;;17.56;77.62;96597.14;1576088;91;27615;-78
2022/08/21 03:42:23;;;;;;;16.20;11.97;;;;;;;17.57;77.61;96601.51;1576046;89;25807;-78
2022/08/21 03:44:49;;;;;;;19.65;13.55;;;;;;;17.57;77.67;96602.05;1643193;86;25870;-78
2022/08/21 03:47:16;;;;;;;16.95;12.68;;;;;;;17.56;77.70;96599.87;1665692;84;26515;-78
2022/08/21 03:49:43;;;;;;;19.82;12.98;;;;;;;17.56;77.81;96600.41;1681973;84;25762;-77
2022/08/21 03:52:09;;;;;;;19.55;13.48;;;;;;;17.57;77.91;96605.59;1682339;84;27478;-78
2022/08/21 03:54:36;;;;;;;17.45;12.20;;;;;;;17.59;77.95;96608.87;1682128;84;26325;-78
2022/08/21 03:57:03;;;;;;;20.12;13.20;;;;;;;17.59;78.00;96603.42;1681971;84;25841;-79
2022/08/21 03:59:29;;;;;;;20.55;13.60;;;;;;;17.61;78.06;96604.52;1682206;83;26367;-79
2022/08/21 04:02:00;;;;;;;23.47;14.43;;;;;;;17.56;78.03;96609.42;1681976;84;25666;-78
2022/08/21 04:04:28;;;;;;;22.73;15.32;;;;;;;17.47;78.04;96604.25;1651282;85;28349;-79
2022/08/21 04:06:57;;;;;;;18.25;12.47;;;;;;;17.42;78.19;96611.06;1644261;87;25708;-78
2022/08/21 04:09:24;;;;;;;21.02;12.37;;;;;;;17.41;78.33;96613.52;1630887;87;25837;-78
2022/08/21 04:11:52;;;;;;;23.87;12.55;;;;;;;17.45;78.45;96615.98;1644307;87;25736;-78
2022/08/21 04:14:20;;;;;;;17.25;12.73;;;;;;;17.49;78.49;96621.17;1630494;87;26912;-78
2022/08/21 04:16:46;;;;;;;19.10;13.80;;;;;;;17.55;78.53;96624.70;1644221;87;27595;-78
2022/08/21 04:19:13;;;;;;;22.58;16.45;;;;;;;17.57;78.48;96616.52;1630623;87;25621;-78
2022/08/21 04:21:41;;;;;;;26.62;15.53;;;;;;;17.61;78.52;96623.07;1644156;87;25746;-77
2022/08/21 04:24:10;;;;;;;19.90;14.00;;;;;;;17.64;78.57;96623.89;1630560;87;26513;-77
2022/08/21 04:26:38;;;;;;;22.50;15.05;;;;;;;17.67;78.58;96624.44;1643939;86;25746;-77
2022/08/21 04:29:09;;;;;;;23.38;14.43;;;;;;;17.69;78.59;96626.35;1630919;87;27433;-78
2022/08/21 04:31:36;;;;;;;28.60;16.57;;;;;;;17.71;78.71;96618.72;1644181;87;25705;-77
2022/08/21 04:34:05;;;;;;;25.57;16.57;;;;;;;17.72;78.75;96623.90;1630461;87;25313;-77
2022/08/21 04:36:32;;;;;;;25.75;17.20;;;;;;;17.76;78.88;96621.41;1644020;87;26533;-78
2022/08/21 04:38:59;;;;;;;31.10;17.70;;;;;;;17.77;78.96;96613.50;1630746;87;25850;-77
2022/08/21 04:41:26;;;;;;;26.33;17.15;;;;;;;17.78;79.15;96620.05;1644314;87;27338;-78
2022/08/21 04:43:54;;;;;;;27.22;17.77;;;;;;;17.75;79.22;96622.53;1630279;87;25738;-78
2022/08/21 04:46:22;;;;;;;24.30;16.85;;;;;;;17.73;79.34;96622.81;1644013;87;25754;-78
2022/08/21 04:48:49;;;;;;;27.40;17.40;;;;;;;17.76;79.45;96624.14;1630823;87;25736;-77
2022/08/21 04:51:21;;;;;;;27.17;17.37;;;;;;;17.74;79.52;96622.27;1644324;87;25986;-77
2022/08/21 04:53:56;;;;;;;26.52;17.32;;;;;;;17.74;79.53;96621.72;1626137;87;27448;-77
2022/08/21 04:56:37;;;;;;;28.35;15.58;;;;;;;17.75;79.52;96626.63;1597006;89;25956;-78
2022/08/21 04:59:10;;;;;;;26.45;16.75;;;;;;;17.77;79.50;96627.15;1568133;91;25763;-77
2022/08/21 05:01:38;;;;;;;23.15;16.85;;;;;;;17.80;79.62;96621.14;1542374;91;25916;-77
2022/08/21 05:04:08;;;;;;;29.00;17.45;;;;;;;17.81;79.63;96620.05;1512178;93;26373;-78
2022/08/21 05:06:38;;;;;;;25.43;17.65;;;;;;;17.86;79.65;96624.15;1530255;93;28295;-77
2022/08/21 05:09:06;;;;;;;26.68;17.52;;;;;;;17.91;79.66;96629.58;1530323;93;25547;-77
2022/08/21 05:11:33;;;;;;;25.85;16.95;;;;;;;17.92;79.64;96628.48;1530206;93;25942;-78
2022/08/21 05:14:00;;;;;;;21.27;16.75;;;;;;;17.96;79.69;96624.94;1529929;92;26605;-78
2022/08/21 05:16:26;;;;;;;24.10;17.80;;;;;;;18.01;79.66;96628.19;1530300;93;25921;-78
2022/08/21 05:18:53;;;;;;;26.12;18.12;;;;;;;18.05;79.73;96623.00;1530095;92;46999;-78
2022/08/21 05:21:20;;;;;;;26.95;16.95;;;;;;;18.10;79.69;96621.62;1529913;93;25854;-78
2022/08/21 05:23:47;;;;;;;23.18;17.23;;;;;;;18.14;79.77;96626.78;1530267;93;26926;-77
2022/08/21 05:26:13;;;;;;;24.45;16.42;;;;;;;18.19;79.78;96627.60;1530066;92;25929;-78
2022/08/21 05:28:40;;;;;;;22.93;16.30;;;;;;;18.24;79.87;96628.11;1530230;93;25770;-77
2022/08/21 05:31:06;;;;;;;23.73;16.25;;;;;;;18.26;79.91;96619.91;1530146;92;27403;-77
2022/08/21 05:33:33;;;;;;;21.68;16.12;;;;;;;18.30;79.92;96627.01;1546719;90;25869;-78
2022/08/21 05:36:00;;;;;;;22.93;16.87;;;;;;;18.33;80.01;96627.83;1631870;86;26818;-79
2022/08/21 05:38:28;;;;;;;20.60;16.62;;;;;;;18.36;79.98;96635.44;1631906;87;25866;-78
2022/08/21 05:40:55;;;;;;;21.90;16.25;;;;;;;18.40;79.98;96631.61;1631469;87;25875;-78
2022/08/21 05:43:21;;;;;;;21.55;17.12;;;;;;;18.42;79.94;96632.16;1631887;87;27378;-77
2022/08/21 05:45:48;;;;;;;21.52;16.30;;;;;;;18.43;79.89;96640.63;1631450;87;25896;-78
2022/08/21 05:48:20;;;;;;;23.57;17.55;;;;;;;18.42;79.97;96637.07;1636777;86;25833;-77
2022/08/21 05:50:49;;;;;;;23.57;17.30;;;;;;;18.43;79.99;96633.79;1695181;82;25813;-78
2022/08/21 05:53:17;;;;;;;22.98;17.67;;;;;;;18.46;79.97;96634.60;1717911;82;25425;-78
2022/08/21 05:55:44;;;;;;;23.92;17.62;;;;;;;18.48;80.01;96635.12;1717743;82;28303;-78
2022/08/21 05:58:17;;;;;;;23.35;18.15;;;;;;;18.48;79.96;96633.75;1717722;82;25726;-78
2022/08/21 06:00:46;;;;;;;24.55;17.60;;;;;;;18.51;79.95;96630.46;1718004;82;25788;-78
2022/08/21 06:03:24;;;;;;;25.08;18.25;;;;;;;18.53;79.96;96633.74;1717543;82;25758;-78
2022/08/21 06:05:51;;;;;;;26.73;18.25;;;;;;;18.55;80.05;96641.11;1729121;82;25702;-79
2022/08/21 06:08:19;;;;;;;21.60;18.62;;;;;;;18.55;80.13;96643.84;1731397;81;27505;-77
2022/08/21 06:10:47;;;;;;;23.50;18.07;;;;;;;18.54;80.22;96640.84;1731113;82;25835;-78
2022/08/21 06:13:16;;;;;;;22.15;18.32;;;;;;;18.52;80.19;96652.05;1731342;82;25787;-77
2022/08/21 06:15:43;;;;;;;23.47;17.82;;;;;;;18.53;80.23;96647.41;1731330;82;25708;-78
2022/08/21 06:18:10;;;;;;;23.47;17.73;;;;;;;18.53;80.21;96645.48;1731416;82;25668;-78
2022/08/21 06:20:38;;;;;;;22.15;16.87;;;;;;;18.58;80.30;96647.42;1731560;81;27388;-78
2022/08/21 06:23:05;;;;;;;24.43;19.90;;;;;;;18.65;80.30;96649.29;1730933;81;25441;-78
2022/08/21 06:25:32;;;;;;;26.40;18.52;;;;;;;18.70;80.40;96642.45;1731045;81;25744;-77
2022/08/21 06:28:07;;;;;;;22.30;17.62;;;;;;;18.75;80.36;96643.77;1731269;82;25766;-78
2022/08/21 06:30:36;;;;;;;20.97;16.62;;;;;;;18.82;80.31;96636.09;1731542;82;25755;-78
2022/08/21 06:33:03;;;;;;;20.30;15.80;;;;;;;18.90;80.31;96641.50;1731557;81;27343;-77
2022/08/21 06:35:30;;;;;;;19.17;15.50;;;;;;;18.92;80.12;96638.77;1731473;82;25747;-78
2022/08/21 06:37:57;;;;;;;18.02;16.00;;;;;;;18.95;80.12;96634.09;1731244;81;25710;-78
2022/08/21 06:40:27;;;;;;;18.82;15.23;;;;;;;19.00;80.17;96635.41;1731162;82;26503;-78
2022/08/21 06:42:53;;;;;;;18.65;13.95;;;;;;;19.05;80.09;96641.41;1731513;82;25406;-78
2022/08/21 06:45:22;;;;;;;17.92;13.95;;;;;;;19.10;80.05;96637.81;1731397;82;28250;-79
2022/08/21 06:47:48;;;;;;;20.48;14.53;;;;;;;19.14;79.99;96636.15;1731464;82;25746;-79
2022/08/21 06:50:15;;;;;;;23.22;15.63;;;;;;;19.17;79.95;96639.69;1738052;80;26286;-79
2022/08/21 06:52:42;;;;;;;17.20;14.70;;;;;;;19.20;79.80;96640.50;1745400;80;26567;-78
2022/08/21 06:55:11;;;;;;;19.37;15.35;;;;;;;19.24;79.75;96644.28;1747896;80;25774;-79
2022/08/21 06:57:38;;;;;;;18.50;14.10;;;;;;;19.26;79.63;96645.63;1730644;80;27580;-78
2022/08/21 07:00:08;;;;;;;16.93;13.95;;;;;;;19.27;79.48;96647.27;1745103;81;25787;-78
2022/08/21 07:02:34;;;;;;;20.57;15.13;;;;;;;19.28;79.48;96643.98;1749088;80;25805;-78
2022/08/21 07:05:01;;;;;;;21.73;15.63;;;;;;;19.32;79.52;96649.16;1746269;80;25727;-78
2022/08/21 07:07:28;;;;;;;20.23;14.93;;;;;;;19.37;79.49;96641.72;1750434;80;25951;-77
2022/08/21 07:09:54;;;;;;;20.82;13.78;;;;;;;19.42;79.49;96644.42;1748268;80;28363;-77
2022/08/21 07:12:21;;;;;;;20.52;14.35;;;;;;;19.48;79.44;96638.89;1748008;80;25814;-77
2022/08/21 07:14:48;;;;;;;18.62;14.93;;;;;;;19.50;79.27;96641.65;1750334;81;25747;-77
2022/08/21 07:17:15;;;;;;;16.95;14.43;;;;;;;19.55;79.23;96645.72;1747906;80;25962;-78
2022/08/21 07:19:41;;;;;;;17.70;14.60;;;;;;;19.58;79.26;96644.30;1748235;80;25744;-77
2022/08/21 07:22:08;;;;;;;17.77;14.23;;;;;;;19.63;79.22;96638.25;1750079;80;28731;-76
2022/08/21 07:24:35;;;;;;;17.92;14.73;;;;;;;19.70;79.10;96635.98;1733683;81;25836;-76
2022/08/21 07:27:02;;;;;;;19.07;15.43;;;;;;;19.76;79.05;96638.95;1733501;81;25238;-76
2022/08/21 07:29:28;;;;;;;20.32;15.63;;;;;;;19.85;78.92;96643.80;1733513;81;25770;-76
2022/08/21 07:31:55;;;;;;;20.65;14.93;;;;;;;19.91;78.95;96634.44;1734047;81;25652;-76
2022/08/21 07:34:22;;;;;;;20.10;15.45;;;;;;;19.95;78.90;96639.03;1733820;81;27351;-76
2022/08/21 07:36:48;;;;;;;26.10;17.92;;;;;;;20.00;78.86;96645.02;1733587;81;25469;-76
2022/08/21 07:39:15;;;;;;;26.07;17.73;;;;;;;20.10;78.78;96649.02;1733789;81;26664;-76
2022/08/21 07:41:41;;;;;;;28.87;19.30;;;;;;;20.18;78.58;96651.11;1733955;81;25690;-75
2022/08/21 07:44:08;;;;;;;29.63;19.55;;;;;;;20.26;78.52;96651.86;1733504;81;25444;-75
2022/08/21 07:46:35;;;;;;;29.05;19.73;;;;;;;20.33;78.37;96641.35;1733700;81;27442;-75
2022/08/21 07:49:01;;;;;;;32.42;22.13;;;;;;;20.42;78.26;96645.11;1733723;81;25223;-76
2022/08/21 07:51:29;;;;;;;35.20;22.32;;;;;;;20.50;78.17;96636.81;1733337;82;25786;-76
2022/08/21 07:53:59;;;;;;;34.90;23.52;;;;;;;20.58;77.94;96640.81;1733632;81;25808;-76
2022/08/21 07:56:27;;;;;;;34.05;23.77;;;;;;;20.63;77.83;96640.77;1733828;82;25698;-76
2022/08/21 07:58:55;;;;;;;38.40;24.80;;;;;;;20.65;77.86;96636.59;1733797;81;27377;-76
2022/08/21 08:01:22;;;;;;;38.20;24.60;;;;;;;20.69;77.69;96634.91;1733495;81;25676;-76
2022/08/21 08:03:49;;;;;;;40.92;25.72;;;;;;;20.75;77.56;96631.55;1733421;81;25678;-76
2022/08/21 08:06:18;;;;;;;38.75;25.05;;;;;;;20.79;77.57;96633.95;1733644;81;26287;-76
2022/08/21 08:08:45;;;;;;;40.12;24.37;;;;;;;20.82;77.44;96638.30;1733827;81;25721;-76
2022/08/21 08:11:16;;;;;;;39.98;24.90;;;;;;;20.83;77.26;96633.63;1733436;82;28683;-76
2022/08/21 08:13:47;;;;;;;37.73;25.15;;;;;;;20.84;77.24;96634.70;1733692;81;25695;-76
2022/08/21 08:16:14;;;;;;;38.80;25.17;;;;;;;20.85;77.22;96628.66;1733764;81;25762;-76
2022/08/21 08:18:41;;;;;;;40.23;25.43;;;;;;;20.88;77.15;96625.34;1733831;81;26231;-75
2022/08/21 08:21:10;;;;;;;37.75;25.00;;;;;;;20.91;77.15;96626.09;1733809;81;25737;-76
2022/08/21 08:23:37;;;;;;;35.60;24.05;;;;;;;20.93;76.95;96621.69;1733716;82;27354;-76
2022/08/21 08:26:04;;;;;;;39.38;24.47;;;;;;;20.93;76.95;96621.69;1733706;81;25389;-76
2022/08/21 08:28:32;;;;;;;39.83;24.63;;;;;;;20.98;77.01;96632.60;1733450;81;25771;-76
2022/08/21 08:31:01;;;;;;;37.30;25.68;;;;;;;20.99;77.17;96625.45;1733772;81;25749;-76
2022/08/21 08:33:27;;;;;;;38.20;24.25;;;;;;;21.03;77.23;96623.72;1733946;81;25968;-76
2022/08/21 08:35:55;;;;;;;38.42;24.35;;;;;;;21.06;77.13;96625.06;1733483;81;27472;-75
2022/08/21 08:38:24;;;;;;;37.53;25.65;;;;;;;21.10;77.06;96623.37;1733635;81;25472;-76
2022/08/21 08:41:12;;;;;;;37.67;24.98;;;;;;;21.13;77.04;96620.83;1733391;81;25790;-76
2022/08/21 08:43:44;;;;;;;37.53;25.15;;;;;;;21.15;77.13;96627.39;1732757;81;25870;-76
2022/08/21 08:46:18;;;;;;;37.98;24.40;;;;;;;21.16;77.01;96628.47;1730512;81;26542;-75
2022/08/21 08:48:56;;;;;;;39.05;25.57;;;;;;;21.19;76.87;96632.03;1733555;81;27417;-75
2022/08/21 08:51:37;;;;;;;38.45;23.80;;;;;;;21.18;76.76;96633.66;1733673;81;25421;-76
2022/08/21 08:54:09;;;;;;;38.85;24.43;;;;;;;21.16;76.68;96633.95;1734518;79;25772;-76
2022/08/21 08:56:36;;;;;;;43.07;26.57;;;;;;;21.15;76.65;96633.70;1795794;79;26442;-76
2022/08/21 08:59:10;;;;;;;35.52;24.30;;;;;;;21.14;76.76;96628.50;1795624;79;25835;-75
2022/08/21 09:01:38;;;;;;;41.42;26.82;;;;;;;21.14;76.89;96630.69;1698915;84;27661;-76
2022/08/21 09:04:05;;;;;;;37.85;25.75;;;;;;;21.13;76.94;96633.76;1698997;84;25886;-76
2022/08/21 09:06:55;;;;;;;41.30;26.62;;;;;;;21.11;76.98;96630.49;1702890;84;25744;-76
2022/08/21 09:09:27;;;;;;;41.92;26.82;;;;;;;21.11;77.04;96633.23;1643985;87;25850;-76
2022/08/21 09:11:59;;;;;;;41.58;27.85;;;;;;;21.13;76.97;96629.05;1641564;87;25749;-77
2022/08/21 09:14:40;;;;;;;38.48;26.75;;;;;;;21.15;76.94;96622.72;1641180;87;27387;-76
2022/08/21 09:17:36;;;;;;;48.95;27.98;;;;;;;21.19;76.97;96627.09;1643216;87;25297;-76
2022/08/21 09:20:29;;;;;;;38.13;27.62;;;;;;;21.23;77.30;96621.84;1640327;87;25839;-77
2022/08/21 09:23:21;;;;;;;43.08;27.82;;;;;;;21.27;77.13;96617.36;1653605;86;25838;-76
2022/08/21 09:26:08;;;;;;;42.67;27.30;;;;;;;21.29;77.02;96616.51;1655722;86;25876;-76
2022/08/21 09:28:36;;;;;;;38.23;26.15;;;;;;;21.32;77.04;96622.23;1601335;89;27499;-76
2022/08/21 09:31:10;;;;;;;47.70;30.02;;;;;;;21.35;76.96;96615.33;1601419;89;25599;-77
2022/08/21 09:33:37;;;;;;;48.02;29.98;;;;;;;21.38;76.94;96614.70;1601240;89;25906;-76
2022/08/21 09:36:04;;;;;;;48.20;30.00;;;;;;;21.43;76.96;96616.83;1601135;89;26600;-76
2022/08/21 09:38:36;;;;;;;49.00;29.80;;;;;;;21.45;76.97;96611.04;1601379;89;25978;-75
2022/08/21 09:41:08;;;;;;;47.70;29.82;;;;;;;21.46;76.90;96614.86;1601444;89;26890;-76
2022/08/21 09:43:36;;;;;;;44.20;28.60;;;;;;;21.48;76.84;96607.70;1601111;89;25752;-75
2022/08/21 09:46:10;;;;;;;44.83;30.70;;;;;;;21.50;76.90;96615.05;1601290;89;25828;-75
2022/08/21 09:48:45;;;;;;;90.83;65.22;;;;;;;21.52;76.83;96614.20;1575965;89;25696;-77
2022/08/21 09:51:17;;;;;;;51.37;34.38;;;;;;;21.53;76.85;96618.02;1578183;89;25855;-76
2022/08/21 09:53:51;;;;;;;54.15;35.13;;;;;;;21.53;76.79;96615.84;1600354;88;27415;-76
2022/08/21 09:59:31;;;;;;;53.73;33.73;;;;;;;21.54;76.84;96614.17;1545936;91;26629;-76
2022/08/21 10:02:02;;;;;;;59.58;34.55;;;;;;;21.53;76.81;96599.36;1564138;91;26528;-76
2022/08/21 10:04:35;;;;;;;51.85;33.48;;;;;;;21.60;76.92;96611.34;1570493;90;25535;-76
2022/08/21 10:07:11;;;;;;;;;;;;;;;21.56;76.92;96606.45;1577036;90;27659;-76
2022/08/21 10:09:37;;;;;;;52.50;33.98;;;;;;;21.53;77.21;96606.22;1484603;96;25931;-75
2022/08/21 10:12:24;;;;;;;58.30;35.38;;;;;;;21.44;76.81;96608.03;1484782;96;25909;-76
2022/08/21 10:15:11;;;;;;;59.67;35.55;;;;;;;21.45;77.17;96608.30;1484503;96;26611;-75
2022/08/21 10:17:52;;;;;;;50.03;32.83;;;;;;;21.47;77.30;96610.19;1446503;98;26005;-76
2022/08/21 10:20:33;;;;;;;53.35;34.23;;;;;;;21.42;77.30;96606.14;1446342;99;27737;-76
2022/08/21 10:23:22;;;;;;;52.58;34.65;;;;;;;21.48;77.46;96603.58;1400771;102;25999;-76
2022/08/21 10:26:12;;;;;;;54.10;34.65;;;;;;;21.47;77.68;96589.04;1420931;100;25844;-76
2022/08/21 10:28:53;;;;;;;53.50;34.75;;;;;;;21.61;77.58;96600.06;1418146;99;26091;-76
2022/08/21 10:31:48;;;;;;;60.65;34.78;;;;;;;21.68;77.43;96596.36;1366330;105;25917;-76
2022/08/21 10:34:35;;;;;;;59.63;33.80;;;;;;;21.71;77.34;96599.88;1364042;105;27492;-76
2022/08/21 10:37:13;;;;;;;56.13;33.90;;;;;;;21.63;77.84;96610.16;1350428;106;25786;-76
2022/08/21 10:39:57;;;;;;;54.08;35.55;;;;;;;21.63;77.84;96610.16;1334218;106;25924;-76
2022/08/21 10:42:37;;;;;;;55.03;34.25;;;;;;;21.56;77.84;96596.02;1330388;106;25945;-76
2022/08/21 10:45:32;;;;;;;53.95;33.90;;;;;;;21.52;77.85;96588.12;1286829;109;25763;-75
2022/08/21 10:48:04;;;;;;;51.40;33.45;;;;;;;21.65;78.17;96596.95;1307374;108;27469;-75
2022/08/21 10:50:42;;;;;;;51.75;33.25;;;;;;;21.65;78.17;96596.95;1306518;108;25890;-76
2022/08/21 10:53:25;;;;;;;56.00;34.90;;;;;;;21.79;77.92;96618.41;1337832;105;25943;-76
2022/08/21 10:56:03;;;;;;;51.23;34.13;;;;;;;21.86;77.67;96616.63;1376171;102;26416;-76
2022/08/21 10:58:43;;;;;;;54.75;33.13;;;;;;;21.90;77.44;96615.73;1383658;103;25943;-76
2022/08/21 11:01:21;;;;;;;52.20;32.78;;;;;;;21.93;77.25;96612.38;1381634;103;28492;-76
2022/08/21 11:04:11;;;;;;;57.88;36.20;;;;;;;21.92;77.28;96609.37;1337955;107;25896;-76
2022/08/21 11:06:42;;;;;;;61.23;36.17;;;;;;;21.89;76.94;96609.16;1371252;103;26043;-76
2022/08/21 11:09:18;;;;;;;58.10;37.90;;;;;;;21.89;76.94;96609.16;1377696;103;25733;-75
2022/08/21 11:12:10;;;;;;;58.70;37.00;;;;;;;21.90;77.08;96611.61;1372680;104;25895;-75
2022/08/21 11:15:20;;;;;;;56.33;37.88;;;;;;;21.96;77.30;96611.53;1353236;104;28356;-76
2022/08/21 11:18:04;;;;;;;54.63;37.55;;;;;;;21.96;77.30;96611.53;1385373;102;25696;-76
2022/08/21 11:20:42;;;;;;;61.13;39.38;;;;;;;21.88;77.02;96584.17;1401110;102;25871;-75
2022/08/21 11:23:17;;;;;;;57.58;38.55;;;;;;;22.03;76.94;96607.28;1394251;101;26522;-76
2022/08/21 11:25:55;;;;;;;57.90;38.15;;;;;;;22.03;76.91;96603.72;1398270;101;25781;-76
2022/08/21 11:28:33;;;;;;;60.80;37.40;;;;;;;21.93;76.83;96608.81;1378705;102;28301;-76
2022/08/21 11:31:31;;;;;;;56.00;36.42;;;;;;;21.93;76.83;96608.81;1390750;102;25748;-76
2022/08/21 11:34:28;;;;;;;45.40;26.95;;;;;;;21.91;76.43;96610.48;1399848;102;25982;-75
2022/08/21 11:37:03;;;;;;;36.33;24.87;;;;;;;21.82;76.58;96617.81;1397226;102;26569;-76